Time;durP1;ratioP1;P1;durP2;ratioP2;P2;SDS_P1;SDS_P2;PMS_P1;PMS_P2;Temp;Humidity;BMP_temperature;BMP_pressure;BME280_temperature;BME280_humidity;BME280_pressure;Samples;Min_cycle;Max_cycle;Signal;HPM_P1;HPM_P2
2022/09/17 00:00:39;;;;;;;2.00;1.70;;;13.80;38.40;;;;;;4964463;28;20464;-67
2022/09/17 00:03:06;;;;;;;3.60;1.90;;;13.80;88.20;;;;;;4966096;28;20425;-65
2022/09/17 00:05:32;;;;;;;2.07;1.73;;;13.70;99.90;;;;;;4965699;28;20451;-67
2022/09/17 00:07:58;;;;;;;1.73;1.53;;;13.60;73.00;;;;;;4964926;28;20515;-66
2022/09/17 00:10:25;;;;;;;1.77;1.40;;;13.60;22.60;;;;;;4963621;28;20181;-65
2022/09/17 00:12:50;;;;;;;2.60;1.73;;;13.50;5.80;;;;;;4964104;28;20178;-67
2022/09/17 00:15:17;;;;;;;2.93;1.60;;;13.50;2.10;;;;;;4966038;28;20467;-66
2022/09/17 00:17:42;;;;;;;2.30;1.23;;;13.50;1.00;;;;;;4963972;28;21051;-66
2022/09/17 00:20:09;;;;;;;3.33;1.80;;;13.50;1.00;;;;;;4964986;28;20469;-65
2022/09/17 00:22:36;;;;;;;2.03;1.60;;;13.40;4.90;;;;;;4965195;28;20184;-66
2022/09/17 00:25:03;;;;;;;2.40;1.57;;;13.40;1.00;;;;;;4969538;28;20436;-65
2022/09/17 00:27:31;;;;;;;2.93;1.70;;;13.30;18.50;;;;;;4964519;28;20429;-66
2022/09/17 00:29:57;;;;;;;3.50;1.70;;;13.30;1.00;;;;;;4967215;28;20460;-66
2022/09/17 00:32:23;;;;;;;2.40;1.60;;;13.30;1.00;;;;;;4966654;28;20515;-66
2022/09/17 00:34:51;;;;;;;2.10;1.43;;;13.20;1.00;;;;;;4964919;28;20202;-66
2022/09/17 00:37:18;;;;;;;5.20;1.67;;;13.30;1.00;;;;;;4966060;28;20576;-66
2022/09/17 00:39:44;;;;;;;2.27;1.17;;;13.30;1.00;;;;;;4963849;28;20516;-67
2022/09/17 00:42:14;;;;;;;4.60;1.63;;;13.30;1.00;;;;;;4966185;28;20920;-67
2022/09/17 00:44:46;;;;;;;9.47;1.80;;;13.30;1.00;;;;;;4967131;28;20563;-66
2022/09/17 00:47:38;;;;;;;2.30;1.63;;;13.30;1.00;;;;;;4967598;28;20495;-65
2022/09/17 00:50:07;;;;;;;3.50;1.20;;;13.30;1.00;;;;;;4971381;28;20938;-65
2022/09/17 00:53:00;;;;;;;3.90;1.30;;;13.30;1.00;;;;;;4967863;28;20977;-66
2022/09/17 00:55:41;;;;;;;5.50;1.50;;;13.30;1.00;;;;;;4966337;28;20460;-66
2022/09/17 00:58:10;;;;;;;5.23;1.90;;;13.30;1.00;;;;;;4964019;28;20432;-67
2022/09/17 01:00:36;;;;;;;1.30;1.07;;;13.30;1.00;;;;;;4967308;28;20486;-67
2022/09/17 01:03:02;;;;;;;1.93;1.23;;;13.20;1.00;;;;;;4971478;28;20440;-66
2022/09/17 01:05:56;;;;;;;2.63;2.10;;;13.20;1.00;;;;;;4968877;28;20770;-67
2022/09/17 01:08:41;;;;;;;5.80;1.60;;;13.10;1.00;;;;;;4933719;28;20192;-67
2022/09/17 01:11:28;;;;;;;9.87;3.20;;;13.10;1.00;;;;;;4968233;28;20459;-66
2022/09/17 01:14:13;;;;;;;7.13;1.47;;;13.20;1.00;;;;;;4968504;28;20965;-67
2022/09/17 01:17:07;;;;;;;5.53;1.97;;;13.20;1.00;;;;;;4966641;28;20452;-67
2022/09/17 01:20:03;;;;;;;5.17;1.30;;;13.20;1.00;;;;;;4968211;28;20472;-66
2022/09/17 01:22:34;;;;;;;2.90;1.20;;;13.10;1.00;;;;;;4967647;28;20435;-66
2022/09/17 01:25:24;;;;;;;2.80;1.63;;;13.00;1.00;;;;;;4969884;28;20785;-67
2022/09/17 01:28:09;;;;;;;2.03;1.43;;;13.10;1.00;;;;;;4968390;28;20443;-66
2022/09/17 01:30:41;;;;;;;2.33;1.20;;;13.10;1.00;;;;;;4966204;28;20947;-66
2022/09/17 01:33:48;;;;;;;1.50;1.17;;;13.10;1.00;;;;;;4968368;28;20461;-66
2022/09/17 01:36:41;;;;;;;2.17;1.33;;;13.10;1.00;;;;;;4951098;28;20949;-66
2022/09/17 01:39:16;;;;;;;1.87;1.20;;;13.10;1.00;;;;;;4968443;28;20483;-66
2022/09/17 01:41:54;;;;;;;1.70;1.20;;;13.10;1.00;;;;;;4967024;28;20428;-66
2022/09/17 01:44:25;;;;;;;3.03;1.60;;;13.10;1.00;;;;;;4967514;28;20460;-67
2022/09/17 01:46:56;;;;;;;2.33;1.13;;;13.10;1.00;;;;;;4966002;28;20429;-66
2022/09/17 01:49:24;;;;;;;2.93;1.30;;;13.10;1.00;;;;;;4967833;28;20436;-66
2022/09/17 01:51:52;;;;;;;3.60;1.50;;;13.10;1.00;;;;;;4966308;28;20540;-66
2022/09/17 01:54:33;;;;;;;3.60;1.50;;;13.20;1.00;;;;;;4966686;28;20810;-66
2022/09/17 01:57:25;;;;;;;1.60;1.10;;;13.20;1.00;;;;;;4966320;28;20438;-66
2022/09/17 02:00:11;;;;;;;1.20;0.90;;;13.20;1.00;;;;;;4965132;28;20899;-67
2022/09/17 02:02:45;;;;;;;3.73;1.60;;;13.10;1.00;;;;;;4965302;28;20513;-67
2022/09/17 02:05:15;;;;;;;2.07;1.50;;;13.10;1.00;;;;;;4965408;28;20448;-66
2022/09/17 02:07:48;;;;;;;1.57;1.10;;;13.10;1.00;;;;;;4969517;28;20950;-66
2022/09/17 02:10:18;;;;;;;1.63;1.30;;;13.00;1.00;;;;;;4972060;28;20429;-66
2022/09/17 02:13:14;;;;;;;2.00;1.30;;;12.90;1.00;;;;;;4970051;28;20734;-65
2022/09/17 02:15:47;;;;;;;5.53;1.50;;;12.80;1.00;;;;;;4939762;28;20782;-65
2022/09/17 02:18:36;;;;;;;5.80;1.70;;;12.90;1.00;;;;;;4968101;28;20458;-65
2022/09/17 02:21:15;;;;;;;1.77;0.97;;;13.00;1.00;;;;;;4967105;28;20484;-63
2022/09/17 02:23:51;;;;;;;2.00;1.47;;;13.00;1.00;;;;;;4968783;28;20440;-66
2022/09/17 02:26:19;;;;;;;2.33;1.13;;;13.00;1.00;;;;;;4969929;28;20521;-66
2022/09/17 02:28:58;;;;;;;6.03;1.50;;;13.00;1.00;;;;;;4970725;28;20902;-67
2022/09/17 02:31:23;;;;;;;4.00;2.03;;;13.00;1.00;;;;;;4970242;28;20436;-67
2022/09/17 02:33:52;;;;;;;4.73;2.00;;;13.00;1.00;;;;;;4970776;28;21126;-67
2022/09/17 02:36:18;;;;;;;4.77;1.30;;;13.00;1.00;;;;;;4970710;28;20184;-67
2022/09/17 02:38:45;;;;;;;3.80;1.67;;;12.90;1.00;;;;;;4970719;28;20468;-67
2022/09/17 02:41:20;;;;;;;5.80;1.50;;;12.90;1.00;;;;;;4969730;28;20472;-67
2022/09/17 02:44:23;;;;;;;3.20;1.50;;;12.90;1.00;;;;;;4988144;23;20440;-63
2022/09/17 02:47:03;;;;;;;2.93;1.40;;;12.90;1.00;;;;;;4948106;28;20440;-64
2022/09/17 02:50:01;;;;;;;6.67;2.27;;;13.00;1.00;;;;;;4953304;28;20551;-60
2022/09/17 02:53:13;;;;;;;1.73;1.10;;;13.00;1.00;;;;;;4947722;28;20523;-61
2022/09/17 02:55:58;;;;;;;2.90;1.63;;;12.80;1.00;;;;;;4950894;29;20503;-64
2022/09/17 02:58:35;;;;;;;1.87;1.30;;;12.90;1.00;;;;;;4948902;29;20429;-62
2022/09/17 03:01:08;;;;;;;4.27;1.40;;;12.90;1.00;;;;;;4950683;28;20555;-62
2022/09/17 03:03:40;;;;;;;7.20;1.50;;;12.90;1.00;;;;;;4951007;28;20440;-63
2022/09/17 03:06:06;;;;;;;10.53;1.60;;;12.90;1.00;;;;;;4950477;28;20538;-64
2022/09/17 03:08:36;;;;;;;2.47;1.57;;;13.00;1.00;;;;;;4950501;29;20520;-61
2022/09/17 03:11:03;;;;;;;4.53;1.40;;;13.00;1.00;;;;;;4949034;28;20182;-62
2022/09/17 03:13:29;;;;;;;2.57;1.83;;;12.90;1.00;;;;;;4950448;28;20455;-64
2022/09/17 03:15:55;;;;;;;2.03;1.40;;;12.80;1.00;;;;;;4948401;28;20520;-64
2022/09/17 03:18:21;;;;;;;4.20;1.60;;;12.70;1.00;;;;;;4950255;29;20438;-64
2022/09/17 03:20:47;;;;;;;4.33;1.47;;;12.80;1.00;;;;;;4947310;28;20206;-63
2022/09/17 03:23:12;;;;;;;2.77;1.67;;;12.80;1.00;;;;;;4948738;28;20445;-62
2022/09/17 03:25:38;;;;;;;2.30;1.63;;;12.80;1.00;;;;;;4949077;29;20253;-64
2022/09/17 03:28:04;;;;;;;2.70;1.70;;;12.70;1.00;;;;;;4942865;28;20183;-63
2022/09/17 03:30:30;;;;;;;4.23;1.33;;;12.80;1.00;;;;;;4948139;29;20714;-63
2022/09/17 03:32:56;;;;;;;4.50;1.40;;;12.80;1.00;;;;;;4944397;29;20197;-64
2022/09/17 03:35:22;;;;;;;5.67;1.70;;;12.80;1.00;;;;;;4949938;28;20453;-62
2022/09/17 03:37:47;;;;;;;3.07;1.40;;;12.70;1.00;;;;;;4950266;28;20182;-63
2022/09/17 03:40:13;;;;;;;3.53;1.47;;;12.70;1.00;;;;;;4949136;28;20224;-64
2022/09/17 03:42:39;;;;;;;5.90;2.10;;;12.70;1.00;;;;;;4950297;28;20185;-63
2022/09/17 03:45:05;;;;;;;3.30;1.67;;;12.70;1.00;;;;;;4946420;28;20229;-64
2022/09/17 03:47:30;;;;;;;4.17;1.60;;;12.70;1.00;;;;;;4949901;28;20201;-63
2022/09/17 03:49:56;;;;;;;7.27;2.20;;;12.60;1.00;;;;;;4947244;29;20437;-64
2022/09/17 03:52:22;;;;;;;5.10;1.80;;;12.60;1.00;;;;;;4948547;29;20182;-63
2022/09/17 03:54:48;;;;;;;3.83;2.40;;;12.60;1.00;;;;;;4950309;28;20206;-62
2022/09/17 03:57:14;;;;;;;6.60;2.13;;;12.50;1.00;;;;;;4949148;28;20190;-62
2022/09/17 03:59:40;;;;;;;2.00;1.77;;;12.50;1.00;;;;;;4950295;28;20288;-62
2022/09/17 04:02:05;;;;;;;4.83;1.83;;;12.50;1.00;;;;;;4949761;28;20497;-62
2022/09/17 04:04:31;;;;;;;3.40;1.73;;;12.40;1.00;;;;;;4950370;29;20275;-62
2022/09/17 04:06:57;;;;;;;2.60;1.53;;;12.40;1.00;;;;;;4949574;28;20190;-63
2022/09/17 04:09:22;;;;;;;5.13;2.17;;;12.40;1.00;;;;;;4950610;28;20563;-63
2022/09/17 04:11:48;;;;;;;8.03;2.60;;;12.40;1.00;;;;;;4952350;28;20563;-59
2022/09/17 04:14:14;;;;;;;2.23;1.60;;;12.30;1.00;;;;;;4949555;28;20213;-62
2022/09/17 04:16:39;;;;;;;5.13;1.90;;;12.40;1.00;;;;;;4950312;29;20181;-61
2022/09/17 04:19:05;;;;;;;4.90;2.30;;;12.40;1.00;;;;;;4948909;28;20261;-62
2022/09/17 04:21:31;;;;;;;5.30;2.00;;;12.30;1.00;;;;;;4951162;28;20216;-63
2022/09/17 04:23:57;;;;;;;3.57;2.07;;;12.20;1.00;;;;;;4953761;28;20206;-64
2022/09/17 04:26:22;;;;;;;17.20;3.03;;;12.20;1.00;;;;;;4953153;28;20174;-63
2022/09/17 04:28:48;;;;;;;7.50;2.33;;;12.30;1.00;;;;;;4953696;28;20182;-63
2022/09/17 04:31:14;;;;;;;10.37;2.20;;;12.30;1.00;;;;;;4951832;28;20554;-62
2022/09/17 04:33:39;;;;;;;5.37;2.30;;;12.30;1.00;;;;;;4952093;28;20190;-61
2022/09/17 04:36:05;;;;;;;6.87;2.10;;;12.20;1.00;;;;;;4951181;29;20190;-64
2022/09/17 04:38:32;;;;;;;5.30;2.17;;;12.20;1.00;;;;;;4950689;28;20489;-62
2022/09/17 04:40:58;;;;;;;5.60;2.40;;;12.20;1.00;;;;;;4951494;28;20574;-63
2022/09/17 04:43:24;;;;;;;10.10;4.00;;;12.30;1.00;;;;;;4950047;28;20429;-64
2022/09/17 04:45:50;;;;;;;9.97;2.57;;;12.30;1.00;;;;;;4951034;29;20985;-63
2022/09/17 04:48:16;;;;;;;3.33;2.27;;;12.30;1.00;;;;;;4948907;28;20186;-61
2022/09/17 04:50:42;;;;;;;7.60;2.40;;;12.30;1.00;;;;;;4950721;28;20433;-62
2022/09/17 04:53:08;;;;;;;5.43;2.30;;;12.40;1.00;;;;;;4950877;28;20433;-62
2022/09/17 04:55:34;;;;;;;13.30;2.40;;;12.40;1.00;;;;;;4950480;28;20795;-63
2022/09/17 04:57:59;;;;;;;27.97;4.70;;;12.40;1.00;;;;;;4949047;28;20249;-62
2022/09/17 05:00:25;;;;;;;6.33;3.50;;;12.40;1.00;;;;;;4947205;28;20323;-64
2022/09/17 05:02:53;;;;;;;8.37;3.30;;;12.40;1.00;;;;;;4948552;28;20182;-61
2022/09/17 05:05:19;;;;;;;4.37;2.13;;;12.30;1.00;;;;;;4945617;28;20301;-64
2022/09/17 05:07:45;;;;;;;9.20;3.70;;;12.20;1.00;;;;;;4943513;29;20421;-62
2022/09/17 05:10:13;;;;;;;6.93;3.90;;;12.30;1.00;;;;;;4948116;28;20433;-59
2022/09/17 05:12:39;;;;;;;4.43;1.97;;;12.20;1.00;;;;;;4945312;28;20793;-62
2022/09/17 05:15:05;;;;;;;7.97;2.33;;;12.10;1.00;;;;;;4947265;28;20458;-62
2022/09/17 05:17:31;;;;;;;5.90;2.73;;;12.00;1.00;;;;;;4945295;28;20186;-63
2022/09/17 05:19:56;;;;;;;5.43;2.73;;;12.00;1.00;;;;;;4948463;29;20563;-64
2022/09/17 05:22:22;;;;;;;4.90;3.10;;;12.00;1.00;;;;;;4946651;28;20179;-60
2022/09/17 05:24:48;;;;;;;4.50;2.37;;;12.10;1.00;;;;;;4947654;28;21646;-63
2022/09/17 05:27:20;;;;;;;12.60;2.33;;;12.20;1.00;;;;;;4945236;28;20186;-66
2022/09/17 05:29:46;;;;;;;6.13;2.20;;;12.20;1.00;;;;;;4937864;28;20193;-65
2022/09/17 05:32:11;;;;;;;8.23;2.33;;;12.20;1.00;;;;;;4946078;29;20919;-65
2022/09/17 05:34:37;;;;;;;18.67;3.47;;;12.30;1.00;;;;;;4944172;28;20286;-66
2022/09/17 05:37:03;;;;;;;8.33;2.37;;;12.40;1.00;;;;;;4938431;28;20343;-65
2022/09/17 05:39:29;;;;;;;4.80;2.00;;;12.50;1.00;;;;;;4940105;28;20183;-63
2022/09/17 05:41:54;;;;;;;6.73;2.40;;;12.40;1.00;;;;;;4946716;29;20647;-65
2022/09/17 05:44:20;;;;;;;5.23;1.83;;;12.40;1.00;;;;;;4943581;29;20218;-64
2022/09/17 05:46:47;;;;;;;6.20;2.57;;;12.30;1.00;;;;;;4942916;29;20186;-64
2022/09/17 05:49:14;;;;;;;14.87;3.10;;;12.20;1.00;;;;;;4945181;29;20644;-65
2022/09/17 05:51:40;;;;;;;3.70;1.77;;;12.20;1.00;;;;;;4945427;29;20449;-64
2022/09/17 05:54:06;;;;;;;13.27;3.00;;;12.30;1.00;;;;;;4944555;28;20464;-64
2022/09/17 05:56:32;;;;;;;8.80;2.37;;;12.30;1.00;;;;;;4945069;28;20430;-64
2022/09/17 05:58:58;;;;;;;7.23;2.77;;;12.30;1.00;;;;;;4945422;28;20432;-62
2022/09/17 06:01:24;;;;;;;23.17;5.20;;;12.30;1.00;;;;;;4944387;28;20665;-65
2022/09/17 06:03:49;;;;;;;9.57;3.00;;;12.50;1.00;;;;;;4946302;28;20179;-64
2022/09/17 06:06:15;;;;;;;10.10;2.90;;;12.50;1.00;;;;;;4950061;28;20628;-64
2022/09/17 06:08:41;;;;;;;10.67;2.63;;;12.50;1.00;;;;;;4944454;29;20179;-64
2022/09/17 06:11:07;;;;;;;26.37;3.50;;;12.60;1.00;;;;;;4945564;29;20190;-65
2022/09/17 06:13:34;;;;;;;7.90;3.33;;;12.60;1.00;;;;;;4945067;28;20190;-65
2022/09/17 06:16:00;;;;;;;26.70;5.30;;;12.50;1.00;;;;;;4945102;28;20446;-65
2022/09/17 06:18:28;;;;;;;17.33;4.10;;;12.70;1.00;;;;;;4945287;28;21452;-63
2022/09/17 06:20:55;;;;;;;4.30;2.00;;;12.90;1.00;;;;;;4943869;28;20458;-64
2022/09/17 06:23:21;;;;;;;6.20;2.40;;;13.30;1.00;;;;;;4943867;28;20438;-65
2022/09/17 06:25:55;;;;;;;4.97;2.17;;;13.80;1.00;;;;;;4945115;28;20533;-64
2022/09/17 06:28:22;;;;;;;4.10;2.20;;;13.60;1.00;;;;;;4944117;29;20453;-66
2022/09/17 06:30:48;;;;;;;5.20;2.20;;;13.40;1.00;;;;;;4945122;28;20430;-65
2022/09/17 06:33:14;;;;;;;5.00;2.20;;;13.30;1.00;;;;;;4944055;28;20432;-66
2022/09/17 06:35:41;;;;;;;9.03;2.77;;;13.70;1.00;;;;;;4945153;28;20198;-68
2022/09/17 06:38:07;;;;;;;5.67;2.40;;;13.90;1.00;;;;;;4944292;29;20457;-65
2022/09/17 06:40:33;;;;;;;12.50;3.73;;;14.10;1.00;;;;;;4944266;28;20454;-63
2022/09/17 06:42:59;;;;;;;5.50;2.73;;;14.20;1.00;;;;;;4944833;28;20444;-65
2022/09/17 06:45:26;;;;;;;5.43;2.47;;;14.00;1.00;;;;;;4943960;28;20457;-65
2022/09/17 06:47:52;;;;;;;7.63;2.20;;;14.30;1.00;;;;;;4944838;28;20254;-66
2022/09/17 06:50:17;;;;;;;5.80;2.27;;;14.10;1.00;;;;;;4944045;29;21159;-65
2022/09/17 06:52:50;;;;;;;8.80;2.37;;;14.10;1.00;;;;;;4943088;28;20205;-65
2022/09/17 06:55:16;;;;;;;11.53;2.77;;;14.00;1.00;;;;;;4943097;29;20265;-64
2022/09/17 06:57:42;;;;;;;12.80;2.77;;;13.80;1.00;;;;;;4943979;28;20911;-65
2022/09/17 07:00:09;;;;;;;4.60;2.37;;;13.60;1.00;;;;;;4944793;28;20513;-65
2022/09/17 07:02:35;;;;;;;4.13;1.90;;;13.40;1.00;;;;;;4942763;28;20635;-65
2022/09/17 07:05:01;;;;;;;14.23;3.20;;;13.40;1.00;;;;;;4945701;29;20524;-64
2022/09/17 07:07:26;;;;;;;8.20;2.23;;;13.20;1.00;;;;;;4943935;28;20302;-66
2022/09/17 07:09:52;;;;;;;5.53;2.27;;;13.10;99.90;;;;;;4946322;28;20649;-65
2022/09/17 07:12:18;;;;;;;7.13;2.70;;;13.30;99.90;;;;;;4945349;28;20588;-65
2022/09/17 07:14:45;;;;;;;8.07;2.43;;;13.20;99.90;;;;;;4947674;28;20719;-65
2022/09/17 07:17:11;;;;;;;4.00;2.47;;;13.20;1.00;;;;;;4945389;28;20445;-66
2022/09/17 07:19:37;;;;;;;6.50;2.33;;;13.10;1.00;;;;;;4946205;28;20470;-66
2022/09/17 07:22:03;;;;;;;8.30;2.30;;;13.10;1.00;;;;;;4948590;29;20256;-67
2022/09/17 07:24:29;;;;;;;9.37;2.50;;;13.00;1.00;;;;;;4947073;28;20449;-65
2022/09/17 07:26:54;;;;;;;8.83;2.20;;;12.90;1.00;;;;;;4949488;29;20252;-63
2022/09/17 07:29:22;;;;;;;5.53;2.60;;;12.90;1.00;;;;;;4950480;28;20189;-66
2022/09/17 07:31:48;;;;;;;9.03;2.93;;;12.90;1.00;;;;;;4946145;28;20262;-65
2022/09/17 07:34:14;;;;;;;13.60;3.37;;;12.90;1.00;;;;;;4946232;29;20453;-65
2022/09/17 07:36:39;;;;;;;5.33;2.83;;;12.90;1.00;;;;;;4935252;29;20441;-65
2022/09/17 07:39:05;;;;;;;8.30;3.77;;;13.00;1.00;;;;;;4947881;28;20917;-66
2022/09/17 07:41:32;;;;;;;10.33;2.93;;;13.00;1.00;;;;;;4951453;28;20569;-66
2022/09/17 07:43:58;;;;;;;5.90;2.83;;;13.20;1.00;;;;;;4948130;29;20202;-65
2022/09/17 07:46:23;;;;;;;10.57;2.20;;;13.20;1.00;;;;;;4950350;28;20426;-66
2022/09/17 07:48:50;;;;;;;10.87;2.80;;;13.10;1.00;;;;;;4949499;28;20535;-64
2022/09/17 07:51:21;;;;;;;7.60;2.20;;;13.10;1.00;;;;;;4947171;28;20189;-66
2022/09/17 07:53:51;;;;;;;11.30;4.30;;;13.00;1.00;;;;;;4949024;28;20417;-65
2022/09/17 07:56:16;;;;;;;24.60;4.57;;;13.00;1.00;;;;;;4948309;28;20461;-64
2022/09/17 07:58:42;;;;;;;5.07;3.10;;;13.10;1.00;;;;;;4953454;28;20966;-66
2022/09/17 08:01:10;;;;;;;12.17;2.93;;;13.10;1.00;;;;;;4954937;29;20209;-65
2022/09/17 08:03:38;;;;;;;8.47;3.30;;;13.00;1.00;;;;;;4952937;28;20302;-65
2022/09/17 08:06:09;;;;;;;9.70;2.60;;;13.00;1.00;;;;;;4952067;28;20465;-66
2022/09/17 08:08:36;;;;;;;7.20;2.73;;;12.90;1.00;;;;;;4953667;28;20767;-65
2022/09/17 08:11:11;;;;;;;7.93;1.80;;;12.70;1.00;;;;;;4954524;29;20456;-65
2022/09/17 08:13:37;;;;;;;7.10;3.00;;;12.80;1.00;;;;;;4953705;28;20429;-66
2022/09/17 08:16:06;;;;;;;6.27;2.10;;;12.80;1.00;;;;;;4953592;28;20998;-65
2022/09/17 08:18:33;;;;;;;9.40;2.27;;;12.80;1.00;;;;;;4953823;28;20520;-64
2022/09/17 08:21:01;;;;;;;7.93;2.23;;;12.70;1.00;;;;;;4953883;28;20465;-66
2022/09/17 08:23:29;;;;;;;13.07;2.97;;;12.80;1.00;;;;;;4954364;28;20437;-65
2022/09/17 08:25:56;;;;;;;5.73;2.40;;;12.90;1.00;;;;;;4950410;28;20422;-64
2022/09/17 08:28:24;;;;;;;5.00;2.27;;;13.00;1.00;;;;;;4949063;28;20439;-64
2022/09/17 08:30:51;;;;;;;8.03;2.30;;;13.10;1.00;;;;;;4952942;28;20436;-64
2022/09/17 08:33:17;;;;;;;3.83;2.10;;;13.20;1.00;;;;;;4951917;28;20446;-65
2022/09/17 08:35:50;;;;;;;6.43;2.03;;;13.40;1.00;;;;;;4953554;28;20450;-64
2022/09/17 08:38:16;;;;;;;6.97;2.63;;;13.40;1.00;;;;;;4953363;29;20434;-64
2022/09/17 08:40:52;;;;;;;8.70;3.10;;;13.40;99.90;;;;;;4952749;28;20468;-65
2022/09/17 08:43:19;;;;;;;14.07;3.00;;;13.60;99.90;;;;;;4952298;28;20225;-65
2022/09/17 08:45:51;;;;;;;8.70;2.50;;;13.70;99.90;;;;;;4969785;23;20501;-64
2022/09/17 08:48:17;;;;;;;10.20;3.50;;;13.80;99.90;;;;;;4951406;29;21061;-67
2022/09/17 08:50:43;;;;;;;7.57;2.50;;;13.80;99.90;;;;;;4949376;28;20422;-67
2022/09/17 08:53:44;;;;;;;10.57;2.30;;;13.80;99.90;;;;;;4948760;28;20437;-66
2022/09/17 08:56:14;;;;;;;11.83;3.93;;;13.60;99.90;;;;;;4954205;28;20233;-67
2022/09/17 08:58:49;;;;;;;7.37;2.10;;;13.40;99.90;;;;;;4951523;28;20432;-66
2022/09/17 09:01:34;;;;;;;5.30;2.30;;;13.40;99.90;;;;;;4955260;28;20457;-66
2022/09/17 09:04:46;;;;;;;4.70;2.60;;;13.20;1.00;;;;;;4954255;28;20426;-66
2022/09/17 09:07:20;;;;;;;11.97;3.10;;;13.20;1.00;;;;;;4947298;28;20837;-67
2022/09/17 09:10:03;;;;;;;4.77;2.10;;;13.20;1.00;;;;;;4951088;28;20460;-67
2022/09/17 09:12:34;;;;;;;7.20;2.13;;;13.10;1.00;;;;;;4950603;28;21063;-67
2022/09/17 09:15:06;;;;;;;2.57;1.80;;;13.20;1.00;;;;;;4953958;28;20454;-67
2022/09/17 09:17:45;;;;;;;7.00;2.33;;;13.10;1.00;;;;;;4963882;28;20426;-66
2022/09/17 09:20:34;;;;;;;7.20;2.07;;;13.20;1.00;;;;;;4959470;28;20471;-67
2022/09/17 09:23:13;;;;;;;5.23;1.97;;;13.20;1.00;;;;;;4956265;28;20426;-67
2022/09/17 09:25:50;;;;;;;7.03;1.73;;;13.20;1.00;;;;;;4955066;28;20486;-67
2022/09/17 09:28:19;;;;;;;2.27;1.43;;;13.10;1.00;;;;;;4954472;28;20425;-65
2022/09/17 09:31:03;;;;;;;3.60;2.00;;;12.90;1.00;;;;;;4953358;28;20426;-66
2022/09/17 09:33:34;;;;;;;2.27;1.40;;;12.90;99.90;;;;;;4951893;28;20458;-67
2022/09/17 09:36:00;;;;;;;4.30;1.53;;;13.00;99.90;;;;;;4951390;28;20910;-66
2022/09/17 09:38:39;;;;;;;9.03;1.50;;;13.00;1.00;;;;;;4951803;28;20437;-67
2022/09/17 09:41:15;;;;;;;3.97;1.90;;;13.10;1.00;;;;;;4952586;28;20533;-67
2022/09/17 09:44:11;;;;;;;5.13;1.70;;;13.20;1.00;;;;;;4949305;28;20428;-66
2022/09/17 09:46:45;;;;;;;1.97;1.30;;;13.10;1.00;;;;;;4949955;28;20481;-66
2022/09/17 09:49:26;;;;;;;8.47;2.17;;;13.10;1.00;;;;;;4952088;28;20891;-66
2022/09/17 09:52:04;;;;;;;16.63;2.60;;;13.00;99.90;;;;;;4954429;28;20489;-66
2022/09/17 09:55:04;;;;;;;7.80;1.50;;;12.90;99.90;;;;;;4951433;28;20449;-66
2022/09/17 09:57:45;;;;;;;2.87;1.60;;;13.00;99.90;;;;;;4954995;28;20429;-66
2022/09/17 10:00:30;;;;;;;6.17;1.70;;;13.00;1.00;;;;;;4952842;28;20477;-67
2022/09/17 10:03:17;;;;;;;4.37;1.60;;;13.10;1.00;;;;;;4950921;28;21017;-66
2022/09/17 10:05:54;;;;;;;1.70;1.53;;;13.10;99.90;;;;;;4949988;28;20508;-67
2022/09/17 10:08:20;;;;;;;2.30;1.17;;;13.00;1.00;;;;;;4951832;28;20437;-65
2022/09/17 10:11:01;;;;;;;6.63;2.50;;;13.10;1.00;;;;;;4952749;28;20431;-65
2022/09/17 10:13:30;;;;;;;6.00;1.60;;;13.20;1.00;;;;;;4954168;28;20994;-65
2022/09/17 10:15:56;;;;;;;4.70;1.63;;;13.50;1.00;;;;;;4952891;28;20446;-67
2022/09/17 10:18:23;;;;;;;9.10;2.03;;;14.00;1.00;;;;;;4952372;28;20477;-67
2022/09/17 10:20:58;;;;;;;15.27;2.80;;;14.30;1.00;;;;;;4951217;28;20457;-67
2022/09/17 10:23:30;;;;;;;7.07;2.73;;;14.70;1.00;;;;;;4951935;28;20424;-67
2022/09/17 10:25:56;;;;;;;6.77;2.53;;;14.60;1.00;;;;;;4951367;28;20454;-67
2022/09/17 10:28:30;;;;;;;6.93;2.93;;;14.60;1.00;;;;;;4956317;28;20753;-67
2022/09/17 10:30:58;;;;;;;4.00;2.30;;;14.50;1.00;;;;;;4951540;28;20434;-67
2022/09/17 10:33:27;;;;;;;7.00;2.93;;;14.60;1.00;;;;;;4952697;28;20844;-67
2022/09/17 10:36:01;;;;;;;6.57;2.73;;;14.70;1.00;;;;;;4950280;28;20814;-68
2022/09/17 10:38:47;;;;;;;5.10;2.37;;;14.80;1.00;;;;;;4952787;28;20435;-68
2022/09/17 10:41:21;;;;;;;8.10;2.67;;;14.90;1.00;;;;;;4952091;28;20477;-67
2022/09/17 10:43:50;;;;;;;8.03;2.60;;;14.90;1.00;;;;;;4953364;28;20440;-67
2022/09/17 10:46:28;;;;;;;3.80;2.50;;;14.70;1.00;;;;;;4953322;28;21180;-67
2022/09/17 10:49:07;;;;;;;6.63;2.63;;;14.90;1.00;;;;;;4951044;28;20501;-67
2022/09/17 10:51:33;;;;;;;6.77;2.10;;;14.90;1.00;;;;;;4951235;28;20429;-69
2022/09/17 10:54:28;;;;;;;7.97;2.63;;;14.80;1.00;;;;;;4950074;28;20438;-68
2022/09/17 10:56:56;;;;;;;15.03;3.20;;;14.80;1.00;;;;;;4949703;28;20422;-67
2022/09/17 10:59:34;;;;;;;19.77;3.47;;;14.80;1.00;;;;;;4954387;28;20800;-65
2022/09/17 11:02:08;;;;;;;10.73;2.80;;;14.80;1.00;;;;;;4950214;28;20957;-68
2022/09/17 11:04:54;;;;;;;8.27;2.17;;;14.70;1.00;;;;;;4951281;28;20465;-66
2022/09/17 11:07:26;;;;;;;16.03;3.13;;;14.50;1.00;;;;;;4950745;28;20942;-65
2022/09/17 11:10:09;;;;;;;10.00;3.27;;;14.20;1.00;;;;;;4951152;28;20437;-65
2022/09/17 11:12:43;;;;;;;3.83;1.97;;;14.30;1.00;;;;;;4952878;28;20426;-65
2022/09/17 11:15:29;;;;;;;17.43;3.87;;;14.40;1.00;;;;;;4950662;28;20968;-67
2022/09/17 11:18:12;;;;;;;33.13;4.10;;;14.30;1.00;;;;;;4953822;28;20813;-66
2022/09/17 11:20:54;;;;;;;8.30;2.47;;;14.30;1.00;;;;;;4951153;28;20883;-66
2022/09/17 11:23:33;;;;;;;7.80;3.83;;;14.30;1.00;;;;;;4942404;28;20535;-67
2022/09/17 11:26:19;;;;;;;6.93;2.60;;;14.40;1.00;;;;;;4928295;29;20521;-65
2022/09/17 11:28:57;;;;;;;4.70;2.37;;;14.40;1.00;;;;;;4915050;29;20435;-66
2022/09/17 11:31:38;;;;;;;8.37;1.97;;;14.40;1.00;;;;;;4930936;28;20465;-64
2022/09/17 11:34:09;;;;;;;7.40;1.90;;;14.30;1.00;;;;;;4927925;29;20435;-66
2022/09/17 11:37:01;;;;;;;8.27;2.10;;;14.20;1.00;;;;;;4932067;29;20477;-67
2022/09/17 11:39:59;;;;;;;6.40;3.67;;;14.10;1.00;;;;;;4930328;29;20430;-68
2022/09/17 11:42:32;;;;;;;2.77;1.60;;;13.90;1.00;;;;;;4919550;29;20470;-66
2022/09/17 11:45:21;;;;;;;3.10;2.00;;;13.60;1.00;;;;;;4930392;29;20842;-68
2022/09/17 11:48:12;;;;;;;6.60;3.07;;;13.60;1.00;;;;;;4929827;29;20431;-66
2022/09/17 11:50:52;;;;;;;4.50;1.73;;;13.60;1.00;;;;;;4931275;29;20434;-66
2022/09/17 11:53:38;;;;;;;4.37;2.00;;;13.60;1.00;;;;;;4930690;29;20437;-66
2022/09/17 11:56:22;;;;;;;2.67;1.77;;;13.70;1.00;;;;;;4928853;29;20464;-67
2022/09/17 11:59:18;;;;;;;6.10;1.93;;;13.90;1.00;;;;;;4926869;29;20935;-68
2022/09/17 12:02:06;;;;;;;7.60;2.30;;;14.10;1.00;;;;;;4923332;29;21023;-66
2022/09/17 12:04:46;;;;;;;4.80;2.30;;;14.30;1.00;;;;;;4927404;29;20525;-66
2022/09/17 12:07:34;;;;;;;4.10;2.33;;;14.60;1.00;;;;;;4918447;29;20463;-66
2022/09/17 12:10:18;;;;;;;9.60;2.43;;;14.90;1.00;;;;;;4928632;29;20427;-67
2022/09/17 12:12:54;;;;;;;7.20;3.20;;;15.10;1.00;;;;;;4924576;29;20434;-67
2022/09/17 12:15:26;;;;;;;5.30;2.77;;;15.10;1.00;;;;;;4929811;29;20455;-67
2022/09/17 12:18:22;;;;;;;7.83;4.20;;;15.00;1.00;;;;;;4929319;29;20441;-66
2022/09/17 12:20:53;;;;;;;11.83;3.20;;;15.10;1.00;;;;;;4926641;29;20451;-67
2022/09/17 12:23:33;;;;;;;7.03;2.90;;;15.10;1.00;;;;;;4932523;29;20456;-67
2022/09/17 12:26:22;;;;;;;9.80;2.87;;;15.10;1.00;;;;;;4927734;29;21002;-67
2022/09/17 12:29:02;;;;;;;8.67;2.93;;;15.10;1.00;;;;;;4927027;29;20473;-67
2022/09/17 12:31:52;;;;;;;6.47;2.20;;;15.00;1.00;;;;;;4929527;29;20453;-66
2022/09/17 12:34:28;;;;;;;7.53;3.00;;;15.00;1.00;;;;;;4926820;28;20856;-67
2022/09/17 12:37:12;;;;;;;4.77;2.20;;;15.10;1.00;;;;;;4928611;29;20441;-66
2022/09/17 12:39:53;;;;;;;5.47;1.97;;;15.10;1.00;;;;;;4928681;29;20430;-67
2022/09/17 12:42:58;;;;;;;15.43;5.00;;;14.90;99.90;;;;;;4931899;28;20433;-67
2022/09/17 12:45:50;;;;;;;8.33;2.70;;;15.10;1.00;;;;;;4931457;29;20485;-66
2022/09/17 12:48:37;;;;;;;7.00;2.07;;;15.20;99.90;;;;;;4930186;29;20448;-66
2022/09/17 12:51:47;;;;;;;13.30;2.63;;;15.40;99.90;;;;;;4930275;29;20893;-66
2022/09/17 12:54:32;;;;;;;14.93;3.37;;;15.40;99.90;;;;;;4933042;29;20439;-67
2022/09/17 12:57:18;;;;;;;11.23;3.00;;;15.30;99.90;;;;;;4930514;29;20437;-66
2022/09/17 13:00:03;;;;;;;12.87;2.63;;;15.30;99.90;;;;;;4928276;29;20427;-68
2022/09/17 13:02:55;;;;;;;11.77;2.80;;;15.20;99.90;;;;;;4930638;29;20445;-67
2022/09/17 13:05:29;;;;;;;14.43;2.90;;;15.30;99.90;;;;;;4902803;29;20478;-67
2022/09/17 13:08:07;;;;;;;9.87;4.13;;;15.20;99.90;;;;;;4932989;29;20517;-67
2022/09/17 13:10:51;;;;;;;4.00;2.23;;;15.20;99.90;;;;;;4934011;29;20438;-67
2022/09/17 13:13:31;;;;;;;7.70;2.57;;;15.10;99.90;;;;;;4928679;29;20445;-67
2022/09/17 13:16:20;;;;;;;7.80;2.80;;;15.10;99.90;;;;;;4927645;29;20824;-67
2022/09/17 13:18:55;;;;;;;3.43;2.23;;;15.20;99.90;;;;;;4927614;29;20470;-67
2022/09/17 13:22:06;;;;;;;4.20;2.43;;;15.10;99.90;;;;;;4930522;29;20480;-68
2022/09/17 13:24:32;;;;;;;13.40;2.80;;;15.10;99.90;;;;;;4872780;29;20468;-65